Time;durP1;ratioP1;P1;durP2;ratioP2;P2;SDS_P1;SDS_P2;PMS_P1;PMS_P2;Temp;Humidity;BMP_temperature;BMP_pressure;BME280_temperature;BME280_humidity;BME280_pressure;Samples;Min_cycle;Max_cycle;Signal;HPM_P1;HPM_P2
2023/07/18 00:00:51;;;;;;;3.93;2.20;;;26.00;77.00;;;;;;5032832;28;20417;-82
2023/07/18 00:03:37;;;;;;;4.00;2.30;;;26.00;77.00;;;;;;5070141;28;20421;-82
2023/07/18 00:06:05;;;;;;;3.65;2.33;;;26.00;76.80;;;;;;5031795;28;20433;-82
2023/07/18 00:08:34;;;;;;;3.55;2.20;;;26.00;76.80;;;;;;5049409;28;20440;-83
2023/07/18 00:11:22;;;;;;;3.05;2.40;;;26.00;76.80;;;;;;5038330;28;20404;-83
2023/07/18 00:13:51;;;;;;;6.65;2.30;;;26.00;76.90;;;;;;5049991;28;20418;-83
2023/07/18 00:16:20;;;;;;;5.95;2.58;;;26.00;77.00;;;;;;5040040;28;20504;-83
2023/07/18 00:18:47;;;;;;;4.75;2.60;;;26.00;77.00;;;;;;5065286;28;20510;-83
2023/07/18 00:21:14;;;;;;;7.95;2.67;;;26.00;77.30;;;;;;5051437;28;20435;-83
2023/07/18 00:23:44;;;;;;;3.72;2.60;;;25.90;76.80;;;;;;5051229;28;20465;-83
2023/07/18 00:26:11;;;;;;;4.07;2.47;;;25.90;77.00;;;;;;5030923;28;20409;-83
2023/07/18 00:28:37;;;;;;;4.10;2.30;;;25.90;77.10;;;;;;5033362;28;20418;-83
2023/07/18 00:31:06;;;;;;;3.28;2.40;;;25.80;76.60;;;;;;5055616;28;20849;-83
2023/07/18 00:33:32;;;;;;;4.00;2.40;;;25.80;76.80;;;;;;5071229;28;20465;-83
2023/07/18 00:35:59;;;;;;;3.78;2.40;;;25.80;76.70;;;;;;5047671;28;20413;-83
2023/07/18 00:38:29;;;;;;;5.57;2.30;;;25.80;76.40;;;;;;5054070;28;20442;-83
2023/07/18 00:40:56;;;;;;;4.53;2.60;;;25.80;76.20;;;;;;5028907;28;20958;-83
2023/07/18 00:43:23;;;;;;;5.15;2.17;;;25.70;76.10;;;;;;5036270;28;20537;-83
2023/07/18 00:45:50;;;;;;;4.73;2.10;;;25.70;76.10;;;;;;5033381;28;20446;-83
2023/07/18 00:48:17;;;;;;;4.80;2.33;;;25.70;76.50;;;;;;5034471;28;20413;-82
2023/07/18 00:50:44;;;;;;;3.83;2.40;;;25.60;76.50;;;;;;5048009;28;20407;-82
2023/07/18 00:53:11;;;;;;;5.70;2.40;;;25.60;76.60;;;;;;5046728;28;20874;-83
2023/07/18 00:55:38;;;;;;;5.28;2.40;;;25.60;76.80;;;;;;5036930;28;20399;-82
2023/07/18 00:58:05;;;;;;;7.53;2.50;;;25.50;76.70;;;;;;5027740;28;20425;-82
2023/07/18 01:00:31;;;;;;;4.72;2.50;;;25.50;76.90;;;;;;5030760;28;20409;-83
2023/07/18 01:03:13;;;;;;;5.07;2.53;;;25.50;77.20;;;;;;5029118;28;20895;-83
2023/07/18 01:05:40;;;;;;;4.78;2.40;;;25.50;77.40;;;;;;5042953;28;20417;-83
2023/07/18 01:08:06;;;;;;;3.77;2.50;;;25.50;77.30;;;;;;5033219;28;20411;-82
2023/07/18 01:10:43;;;;;;;5.43;2.40;;;25.40;77.30;;;;;;5030197;28;20516;-83
2023/07/18 01:13:13;;;;;;;5.20;2.65;;;25.50;77.50;;;;;;5049471;28;20420;-83
2023/07/18 01:15:40;;;;;;;2.90;2.40;;;25.40;77.10;;;;;;5036054;28;20807;-84
2023/07/18 01:18:13;;;;;;;5.05;2.45;;;25.40;77.40;;;;;;5041787;28;20587;-83
2023/07/18 01:20:44;;;;;;;3.63;2.25;;;25.40;77.30;;;;;;5024212;28;20417;-83
2023/07/18 01:23:11;;;;;;;4.85;2.60;;;25.40;77.20;;;;;;5038443;28;20429;-83
2023/07/18 01:25:42;;;;;;;4.45;2.40;;;25.40;77.20;;;;;;5047690;28;20413;-83
2023/07/18 01:28:10;;;;;;;5.40;2.47;;;25.50;77.20;;;;;;5037734;28;20510;-83
2023/07/18 01:30:44;;;;;;;4.50;2.47;;;25.50;77.60;;;;;;5041961;28;20426;-83
2023/07/18 01:33:15;;;;;;;4.03;2.50;;;25.40;77.40;;;;;;5025720;28;20427;-83
2023/07/18 01:35:45;;;;;;;4.38;2.42;;;25.40;77.50;;;;;;5058025;28;20516;-83
2023/07/18 01:38:30;;;;;;;5.88;2.30;;;25.40;77.30;;;;;;5040210;28;20886;-83
2023/07/18 01:40:58;;;;;;;6.80;2.70;;;25.30;77.30;;;;;;5025581;28;20421;-83
2023/07/18 01:43:25;;;;;;;4.85;2.50;;;25.30;77.20;;;;;;5023357;28;20413;-83
2023/07/18 01:45:52;;;;;;;4.75;2.75;;;25.30;77.30;;;;;;5056738;28;20413;-83
2023/07/18 01:48:19;;;;;;;3.45;2.60;;;25.30;77.50;;;;;;5044489;28;20419;-83
2023/07/18 01:50:45;;;;;;;3.20;2.50;;;25.30;77.30;;;;;;5046429;28;20595;-83
2023/07/18 01:53:21;;;;;;;6.47;2.33;;;25.30;77.40;;;;;;5030554;28;20789;-82
2023/07/18 01:55:47;;;;;;;5.60;2.53;;;25.30;77.50;;;;;;5041629;28;20407;-82
2023/07/18 01:58:13;;;;;;;7.53;2.42;;;25.30;77.80;;;;;;5043072;28;20549;-82
2023/07/18 02:00:40;;;;;;;6.97;2.60;;;25.20;76.70;;;;;;5044832;28;20411;-82
2023/07/18 02:03:06;;;;;;;7.03;2.65;;;25.10;76.60;;;;;;5060368;28;20494;-82
2023/07/18 02:05:47;;;;;;;6.53;2.45;;;25.00;76.60;;;;;;5053421;28;20500;-82
2023/07/18 02:08:15;;;;;;;6.43;2.60;;;25.00;76.50;;;;;;5038323;28;20441;-82
2023/07/18 02:10:42;;;;;;;6.18;2.67;;;25.00;76.50;;;;;;5062664;28;20409;-83
2023/07/18 02:13:10;;;;;;;4.90;2.67;;;25.00;77.10;;;;;;5057876;28;20403;-82
2023/07/18 02:15:36;;;;;;;5.40;2.53;;;25.10;77.90;;;;;;5030685;28;20482;-82
2023/07/18 02:18:04;;;;;;;2.55;2.30;;;25.10;76.90;;;;;;5018383;28;20511;-82
2023/07/18 02:20:30;;;;;;;5.97;2.50;;;25.10;76.60;;;;;;5023022;28;20411;-82
2023/07/18 02:22:56;;;;;;;6.07;2.40;;;25.10;76.50;;;;;;5021081;28;20439;-82
2023/07/18 02:25:22;;;;;;;10.50;2.90;;;25.10;76.40;;;;;;5041512;28;20450;-82
2023/07/18 02:28:00;;;;;;;6.22;2.60;;;25.10;76.30;;;;;;5038413;28;20424;-81
2023/07/18 02:30:26;;;;;;;6.57;2.50;;;25.10;76.30;;;;;;5042834;28;20418;-81
2023/07/18 02:32:53;;;;;;;5.45;2.20;;;25.10;75.90;;;;;;5040476;28;20401;-82
2023/07/18 02:35:21;;;;;;;6.10;2.10;;;25.10;76.30;;;;;;5042630;28;20450;-82
2023/07/18 02:37:52;;;;;;;11.85;2.50;;;25.10;76.70;;;;;;5035719;28;20496;-82
2023/07/18 02:40:18;;;;;;;5.72;2.40;;;25.10;76.70;;;;;;5058982;28;20457;-82
2023/07/18 02:42:44;;;;;;;5.00;2.20;;;25.10;76.40;;;;;;5055006;28;20421;-82
2023/07/18 02:45:11;;;;;;;5.07;2.30;;;25.10;76.60;;;;;;5054658;28;20503;-82
2023/07/18 02:47:39;;;;;;;3.45;2.30;;;25.10;76.60;;;;;;5042292;28;20413;-82
2023/07/18 02:50:07;;;;;;;4.15;2.30;;;25.10;76.60;;;;;;5031782;28;20413;-82
2023/07/18 02:52:34;;;;;;;5.47;2.42;;;25.10;76.50;;;;;;5026938;28;20405;-82
2023/07/18 02:55:06;;;;;;;4.60;2.25;;;25.10;76.50;;;;;;5029799;28;20401;-81
2023/07/18 02:57:39;;;;;;;5.13;2.08;;;25.10;76.40;;;;;;5047357;28;20409;-82
2023/07/18 03:00:19;;;;;;;9.07;2.38;;;25.10;75.70;;;;;;5048833;28;20498;-81
2023/07/18 03:02:52;;;;;;;7.00;2.10;;;25.10;76.40;;;;;;5025615;28;20410;-81
2023/07/18 03:05:25;;;;;;;4.90;2.30;;;25.00;76.60;;;;;;5042084;28;20423;-81
2023/07/18 03:07:55;;;;;;;4.30;2.20;;;25.10;76.60;;;;;;5040440;28;20418;-82
2023/07/18 03:10:25;;;;;;;7.30;2.35;;;25.10;76.10;;;;;;5028961;28;21111;-81
2023/07/18 03:12:59;;;;;;;4.25;2.00;;;25.00;76.30;;;;;;5034334;28;20466;-82
2023/07/18 03:15:25;;;;;;;2.63;2.20;;;24.90;76.40;;;;;;5025821;28;20410;-81
2023/07/18 03:17:51;;;;;;;3.38;2.20;;;24.90;76.10;;;;;;5029129;28;21055;-81
2023/07/18 03:20:19;;;;;;;6.90;2.50;;;24.90;76.40;;;;;;5044536;28;20408;-82
2023/07/18 03:22:47;;;;;;;7.18;2.38;;;24.90;76.40;;;;;;5025428;28;21119;-82
2023/07/18 03:25:14;;;;;;;5.15;2.45;;;24.90;76.70;;;;;;5031435;28;20505;-82
2023/07/18 03:27:41;;;;;;;4.72;2.17;;;24.80;76.60;;;;;;5029735;28;20494;-82
2023/07/18 03:30:48;;;;;;;6.17;2.23;;;24.80;76.80;;;;;;5062275;28;21185;-82
2023/07/18 03:33:15;;;;;;;4.53;2.30;;;24.80;77.00;;;;;;5047311;28;20450;-82
2023/07/18 03:35:43;;;;;;;5.13;2.10;;;24.80;76.80;;;;;;5052093;28;20531;-82
2023/07/18 03:38:09;;;;;;;3.80;2.10;;;24.80;76.80;;;;;;5028098;28;20399;-82
2023/07/18 03:40:40;;;;;;;3.20;2.20;;;24.80;77.10;;;;;;5049208;28;20466;-82
2023/07/18 03:43:06;;;;;;;5.50;2.40;;;24.80;77.40;;;;;;5026607;28;20457;-82
2023/07/18 03:45:33;;;;;;;5.57;2.28;;;24.80;77.80;;;;;;5060245;28;20493;-82
2023/07/18 03:48:00;;;;;;;5.83;2.37;;;24.80;77.80;;;;;;5030757;28;20428;-81
2023/07/18 03:50:26;;;;;;;6.00;2.50;;;24.80;78.00;;;;;;5029800;28;20499;-82
2023/07/18 03:52:52;;;;;;;4.80;2.30;;;24.90;78.00;;;;;;5033688;28;20407;-82
2023/07/18 03:55:19;;;;;;;7.38;2.40;;;24.80;78.00;;;;;;5048161;28;20408;-80
2023/07/18 03:57:45;;;;;;;5.28;2.63;;;24.80;78.60;;;;;;5048647;28;20413;-82
2023/07/18 04:00:24;;;;;;;7.55;2.20;;;24.80;77.80;;;;;;5029374;28;20414;-82
2023/07/18 04:02:51;;;;;;;5.28;2.30;;;24.90;77.30;;;;;;5064873;28;20410;-82
2023/07/18 04:05:18;;;;;;;4.28;2.30;;;24.90;77.20;;;;;;5064256;28;20407;-82
2023/07/18 04:07:45;;;;;;;4.15;2.25;;;24.90;77.10;;;;;;5044552;28;20424;-82
2023/07/18 04:10:13;;;;;;;8.48;2.47;;;25.00;77.00;;;;;;5030686;28;20407;-82
2023/07/18 04:12:40;;;;;;;2.53;1.98;;;25.10;76.60;;;;;;5031621;28;20940;-82
2023/07/18 04:15:08;;;;;;;4.00;2.30;;;25.10;77.10;;;;;;5061364;28;20396;-82
2023/07/18 04:17:35;;;;;;;6.30;2.28;;;25.20;77.30;;;;;;5059802;28;20419;-82
2023/07/18 04:20:04;;;;;;;4.78;2.30;;;25.20;77.60;;;;;;5028792;28;20509;-82
2023/07/18 04:22:30;;;;;;;6.53;2.20;;;25.20;77.60;;;;;;5029017;28;21080;-82
2023/07/18 04:24:57;;;;;;;5.10;2.13;;;25.30;77.90;;;;;;5046454;28;20427;-82
2023/07/18 04:27:26;;;;;;;5.28;2.20;;;25.30;77.90;;;;;;5047083;28;20442;-82
2023/07/18 04:29:53;;;;;;;7.38;2.20;;;25.40;77.90;;;;;;5046008;28;20494;-82
2023/07/18 04:32:20;;;;;;;4.03;2.33;;;25.40;77.70;;;;;;5041195;28;20431;-82
2023/07/18 04:34:49;;;;;;;6.10;2.33;;;25.50;77.70;;;;;;5058425;28;20905;-82
2023/07/18 04:37:16;;;;;;;4.07;2.30;;;25.60;77.90;;;;;;5032550;28;20408;-82
2023/07/18 04:39:44;;;;;;;5.65;2.50;;;25.70;77.90;;;;;;5024055;28;20418;-83
2023/07/18 04:42:12;;;;;;;6.95;2.22;;;25.80;78.00;;;;;;5045145;28;20413;-83
2023/07/18 04:44:38;;;;;;;4.88;2.40;;;25.90;78.70;;;;;;5046917;28;20986;-83
2023/07/18 04:47:09;;;;;;;4.65;2.50;;;26.00;78.60;;;;;;5036178;28;20431;-82
2023/07/18 04:49:35;;;;;;;6.65;2.38;;;26.00;78.50;;;;;;5042200;28;20430;-83
2023/07/18 04:52:05;;;;;;;6.07;2.30;;;26.10;79.00;;;;;;5030653;28;20416;-82
2023/07/18 04:54:32;;;;;;;5.25;2.50;;;26.20;79.40;;;;;;5041035;28;20491;-83
2023/07/18 04:56:59;;;;;;;3.47;2.25;;;26.20;79.60;;;;;;5052224;28;20930;-83
2023/07/18 04:59:26;;;;;;;4.60;2.42;;;26.20;79.90;;;;;;5022691;28;20481;-82
2023/07/18 05:01:53;;;;;;;3.60;2.30;;;26.30;80.00;;;;;;5065331;28;20425;-82
2023/07/18 05:04:28;;;;;;;5.43;2.40;;;26.40;80.40;;;;;;5032305;28;20748;-82
2023/07/18 05:06:55;;;;;;;4.43;2.40;;;26.50;80.40;;;;;;5029834;28;20407;-82
2023/07/18 05:09:21;;;;;;;4.55;2.35;;;26.50;79.80;;;;;;5042546;28;20902;-82
2023/07/18 05:11:48;;;;;;;3.42;2.45;;;26.60;80.10;;;;;;5029257;28;20400;-82
2023/07/18 05:14:14;;;;;;;5.30;2.60;;;26.70;79.60;;;;;;5028352;28;20416;-82
2023/07/18 05:16:40;;;;;;;4.47;2.40;;;26.70;80.90;;;;;;5020105;28;20504;-82
2023/07/18 05:19:11;;;;;;;3.70;2.60;;;26.80;79.80;;;;;;5032520;28;20404;-82
2023/07/18 05:21:37;;;;;;;4.00;2.60;;;26.80;79.50;;;;;;5035025;28;20415;-82
2023/07/18 05:24:03;;;;;;;4.60;2.60;;;26.90;79.00;;;;;;5067439;28;20428;-82
2023/07/18 05:26:43;;;;;;;4.65;2.40;;;26.90;78.40;;;;;;5048622;28;20411;-82
2023/07/18 05:29:09;;;;;;;3.50;2.53;;;27.00;78.10;;;;;;5045310;28;20454;-82
2023/07/18 05:31:41;;;;;;;4.70;2.50;;;27.10;78.10;;;;;;5058608;28;20429;-82
2023/07/18 05:34:07;;;;;;;5.72;2.33;;;27.10;77.80;;;;;;5042611;28;20411;-82
2023/07/18 05:36:33;;;;;;;4.10;2.50;;;27.20;78.10;;;;;;5023061;28;20400;-82
2023/07/18 05:39:02;;;;;;;5.40;2.50;;;27.20;78.00;;;;;;5046386;28;20450;-82
2023/07/18 05:41:29;;;;;;;4.63;2.70;;;27.30;78.70;;;;;;5030976;28;20727;-83
2023/07/18 05:43:56;;;;;;;6.13;2.60;;;27.40;77.70;;;;;;5041458;28;20409;-83
2023/07/18 05:46:23;;;;;;;5.60;2.50;;;27.60;78.00;;;;;;5051489;28;20938;-82
2023/07/18 05:48:50;;;;;;;5.30;2.50;;;27.60;77.80;;;;;;5031134;28;20465;-83
2023/07/18 05:51:18;;;;;;;4.63;2.60;;;27.60;78.60;;;;;;5035683;28;20429;-82
2023/07/18 05:53:45;;;;;;;5.95;2.55;;;27.70;78.60;;;;;;5039194;28;20416;-84
2023/07/18 05:56:11;;;;;;;6.22;2.30;;;27.80;78.50;;;;;;5032778;28;20423;-82
2023/07/18 05:58:37;;;;;;;7.82;2.90;;;27.80;78.60;;;;;;5040630;28;20426;-83
2023/07/18 06:01:13;;;;;;;5.70;2.35;;;27.90;78.70;;;;;;5028430;28;20720;-83
2023/07/18 06:03:40;;;;;;;7.10;2.50;;;28.00;78.10;;;;;;5040729;28;20545;-82
2023/07/18 06:06:07;;;;;;;4.10;2.53;;;28.10;78.20;;;;;;5048798;28;20400;-83
2023/07/18 06:08:35;;;;;;;6.47;2.63;;;28.20;77.80;;;;;;5019997;28;20435;-82
2023/07/18 06:11:01;;;;;;;5.53;2.50;;;28.30;76.60;;;;;;5063943;28;20418;-84
2023/07/18 06:13:27;;;;;;;9.77;2.60;;;28.40;76.60;;;;;;5059512;28;20441;-82
2023/07/18 06:15:56;;;;;;;4.22;2.42;;;28.50;76.00;;;;;;5031056;28;20498;-82
2023/07/18 06:18:22;;;;;;;3.95;2.50;;;28.50;76.50;;;;;;5038858;28;21182;-83
2023/07/18 06:20:49;;;;;;;3.90;2.33;;;28.50;76.90;;;;;;5059481;28;20412;-83
2023/07/18 06:23:16;;;;;;;3.95;2.20;;;28.60;77.00;;;;;;5027891;28;20401;-82
2023/07/18 06:25:42;;;;;;;4.43;2.47;;;28.60;77.60;;;;;;5046035;28;20414;-82
2023/07/18 06:28:09;;;;;;;4.35;2.45;;;28.70;76.50;;;;;;5025112;28;20537;-81
2023/07/18 06:30:57;;;;;;;7.38;2.60;;;28.70;75.20;;;;;;5047430;28;20408;-82
2023/07/18 06:33:25;;;;;;;3.80;2.53;;;28.90;75.50;;;;;;5028267;28;20431;-82
2023/07/18 06:35:56;;;;;;;5.25;2.60;;;29.00;75.70;;;;;;5040879;28;20832;-83
2023/07/18 06:38:25;;;;;;;3.70;2.63;;;29.10;77.20;;;;;;5043642;28;20405;-82
2023/07/18 06:40:52;;;;;;;12.43;2.65;;;29.10;76.00;;;;;;5043380;28;21353;-84
2023/07/18 06:43:18;;;;;;;9.40;2.73;;;29.20;77.00;;;;;;5045551;28;20404;-83
2023/07/18 06:45:46;;;;;;;6.30;2.40;;;29.30;78.00;;;;;;5064308;28;20462;-83
2023/07/18 06:48:17;;;;;;;4.38;2.63;;;29.40;77.40;;;;;;5020266;28;20911;-83
2023/07/18 06:50:51;;;;;;;4.37;2.60;;;29.40;78.60;;;;;;5041887;28;20444;-83
2023/07/18 06:53:21;;;;;;;7.82;2.70;;;29.50;77.90;;;;;;5025872;28;20469;-83
2023/07/18 06:55:49;;;;;;;5.38;2.40;;;29.60;77.80;;;;;;5047296;28;20408;-83
2023/07/18 06:58:19;;;;;;;4.65;2.60;;;29.70;78.30;;;;;;5041447;28;20543;-83
2023/07/18 07:00:52;;;;;;;5.95;2.90;;;29.80;78.20;;;;;;5043792;28;20549;-83
2023/07/18 07:03:20;;;;;;;4.63;2.50;;;29.90;79.40;;;;;;5032905;28;20901;-82
2023/07/18 07:05:47;;;;;;;8.57;2.85;;;30.10;78.30;;;;;;5061675;28;20887;-82
2023/07/18 07:08:13;;;;;;;4.43;2.65;;;30.20;78.70;;;;;;5034387;28;20419;-83
2023/07/18 07:10:43;;;;;;;6.18;2.70;;;30.40;78.80;;;;;;5031805;28;20421;-82
2023/07/18 07:13:10;;;;;;;6.95;2.63;;;30.50;78.40;;;;;;5045688;28;20407;-82
2023/07/18 07:15:36;;;;;;;6.07;2.70;;;30.70;78.20;;;;;;5034627;28;22144;-85
2023/07/18 07:18:04;;;;;;;6.88;2.78;;;30.80;78.30;;;;;;5046262;28;20411;-82
2023/07/18 07:20:33;;;;;;;3.58;2.50;;;30.90;78.10;;;;;;5042767;28;20424;-82
2023/07/18 07:23:00;;;;;;;4.63;2.55;;;30.90;77.70;;;;;;5026733;28;20785;-85
2023/07/18 07:25:29;;;;;;;6.75;2.70;;;31.00;78.00;;;;;;5046564;28;20443;-83
2023/07/18 07:27:57;;;;;;;6.63;2.88;;;31.00;77.70;;;;;;5029019;28;20418;-80
2023/07/18 07:30:24;;;;;;;8.55;2.65;;;31.10;76.50;;;;;;5031250;28;20412;-82
2023/07/18 07:32:52;;;;;;;4.88;2.50;;;31.20;77.20;;;;;;5047876;28;20458;-83
2023/07/18 07:35:22;;;;;;;6.55;2.80;;;31.30;77.60;;;;;;5031580;28;20553;-86
2023/07/18 07:37:51;;;;;;;6.35;2.75;;;31.40;77.20;;;;;;5033278;28;20925;-83
2023/07/18 07:40:20;;;;;;;4.75;2.70;;;31.50;76.70;;;;;;5053883;28;20409;-83
2023/07/18 07:42:47;;;;;;;5.68;2.78;;;31.50;77.40;;;;;;5032079;28;20426;-83
2023/07/18 07:45:16;;;;;;;4.43;2.55;;;31.70;76.60;;;;;;5065575;28;20491;-82
2023/07/18 07:47:43;;;;;;;6.47;3.13;;;31.80;75.60;;;;;;5042097;28;20413;-81
2023/07/18 07:50:12;;;;;;;8.82;2.80;;;31.80;76.20;;;;;;5029487;28;20424;-82
2023/07/18 07:52:39;;;;;;;5.00;2.63;;;31.90;75.60;;;;;;5027770;28;20492;-82
2023/07/18 07:55:06;;;;;;;9.65;2.80;;;32.00;76.10;;;;;;5027193;28;20404;-82
2023/07/18 07:57:33;;;;;;;5.55;2.92;;;32.20;75.90;;;;;;5039956;28;20558;-83
2023/07/18 07:59:59;;;;;;;6.18;2.70;;;32.30;75.20;;;;;;5056847;28;20417;-83
2023/07/18 08:02:32;;;;;;;4.20;2.55;;;32.40;75.60;;;;;;5031096;28;20901;-86
2023/07/18 08:05:00;;;;;;;5.33;2.63;;;32.40;74.00;;;;;;5049005;28;20979;-83
2023/07/18 08:07:31;;;;;;;6.97;2.88;;;32.60;73.10;;;;;;5056613;28;20478;-81
2023/07/18 08:09:57;;;;;;;4.43;2.92;;;32.60;74.40;;;;;;5046781;28;20425;-89
2023/07/18 08:12:44;;;;;;;6.28;2.60;;;32.80;72.90;;;;;;5058617;28;20486;-82
2023/07/18 08:15:12;;;;;;;8.83;2.73;;;32.80;73.70;;;;;;5032964;28;20970;-82
2023/07/18 08:17:45;;;;;;;6.78;2.70;;;33.00;73.50;;;;;;5024276;28;20404;-88
2023/07/18 08:20:12;;;;;;;5.28;2.80;;;33.10;73.90;;;;;;5020137;28;20498;-84
2023/07/18 08:22:40;;;;;;;7.90;3.00;;;33.10;73.60;;;;;;5033970;28;20428;-81
2023/07/18 08:25:06;;;;;;;7.60;2.80;;;33.30;75.30;;;;;;5039893;28;20403;-82
2023/07/18 08:27:33;;;;;;;7.95;2.63;;;33.30;75.20;;;;;;5020767;28;20436;-84
2023/07/18 08:30:13;;;;;;;5.18;2.80;;;33.40;73.90;;;;;;5029702;28;20431;-84
2023/07/18 08:32:45;;;;;;;5.07;2.67;;;33.50;74.30;;;;;;5033721;28;20492;-83
2023/07/18 08:35:16;;;;;;;6.85;2.80;;;33.60;75.50;;;;;;5045107;28;20412;-85
2023/07/18 08:37:44;;;;;;;3.60;2.40;;;33.70;77.70;;;;;;5060549;28;20492;-86
2023/07/18 08:40:13;;;;;;;4.55;2.55;;;33.80;78.10;;;;;;5022110;28;20946;-81
2023/07/18 08:42:43;;;;;;;6.57;2.88;;;33.90;78.10;;;;;;5033679;28;20412;-87
2023/07/18 08:45:16;;;;;;;6.60;2.90;;;34.00;79.30;;;;;;5038723;28;20408;-83
2023/07/18 08:47:46;;;;;;;5.50;2.90;;;34.00;77.20;;;;;;5040758;28;20409;-81
2023/07/18 08:50:17;;;;;;;5.35;2.60;;;34.10;78.30;;;;;;5056071;28;20447;-84
2023/07/18 08:52:58;;;;;;;9.10;2.60;;;34.30;79.50;;;;;;5052337;28;21159;-82
2023/07/18 08:55:36;;;;;;;7.07;2.75;;;34.40;77.70;;;;;;5039663;28;20465;-84
2023/07/18 08:58:05;;;;;;;6.05;2.65;;;34.50;79.30;;;;;;5051492;28;20431;-81
2023/07/18 09:00:31;;;;;;;6.57;2.63;;;34.50;77.50;;;;;;5046024;28;20809;-84
2023/07/18 09:03:00;;;;;;;9.00;2.85;;;34.60;80.70;;;;;;5023015;28;20547;-84
2023/07/18 09:05:41;;;;;;;7.20;2.70;;;34.80;76.80;;;;;;5064087;28;20498;-83
2023/07/18 09:08:10;;;;;;;6.97;2.65;;;34.80;77.80;;;;;;5032123;28;20505;-84
2023/07/18 09:10:38;;;;;;;4.25;2.80;;;35.00;77.70;;;;;;5025102;28;20440;-87
2023/07/18 09:13:07;;;;;;;6.70;2.60;;;35.00;75.40;;;;;;5027736;28;20417;-86
2023/07/18 09:15:38;;;;;;;4.05;2.60;;;35.10;78.40;;;;;;5030015;28;21133;-86
2023/07/18 09:18:08;;;;;;;4.43;2.53;;;35.10;77.00;;;;;;5031674;28;20498;-87
2023/07/18 09:20:36;;;;;;;5.10;2.60;;;35.20;76.70;;;;;;5049373;28;20459;-90
2023/07/18 09:23:04;;;;;;;7.18;2.80;;;35.20;75.50;;;;;;5037822;28;20430;-85
2023/07/18 09:25:37;;;;;;;5.65;2.55;;;35.20;75.40;;;;;;5038569;28;20937;-83
2023/07/18 09:28:08;;;;;;;6.73;2.40;;;35.30;74.00;;;;;;5056160;28;20416;-81
2023/07/18 09:30:35;;;;;;;4.60;2.60;;;35.50;75.60;;;;;;5057587;28;20495;-87
2023/07/18 09:33:06;;;;;;;5.47;2.50;;;35.60;76.20;;;;;;5027712;28;21030;-83
2023/07/18 09:35:41;;;;;;;5.10;2.63;;;35.70;74.30;;;;;;5054283;28;20413;-84
2023/07/18 09:38:11;;;;;;;4.55;2.30;;;35.70;75.40;;;;;;5037128;28;20439;-88
2023/07/18 09:40:38;;;;;;;5.13;2.47;;;35.70;72.90;;;;;;5052076;28;20435;-85
2023/07/18 09:43:06;;;;;;;6.07;2.50;;;35.90;74.50;;;;;;5038648;28;20411;-86
2023/07/18 09:45:34;;;;;;;11.98;2.90;;;36.10;71.70;;;;;;5050452;28;20446;-86
2023/07/18 09:48:05;;;;;;;5.47;2.53;;;36.20;72.30;;;;;;5041325;28;20497;-84
2023/07/18 09:50:37;;;;;;;5.82;2.75;;;36.10;68.70;;;;;;5052449;28;20418;-91
2023/07/18 09:53:11;;;;;;;7.60;2.60;;;36.10;73.80;;;;;;5050892;28;20443;-83
2023/07/18 09:55:38;;;;;;;7.73;2.60;;;36.40;72.80;;;;;;5037635;28;20797;-82
2023/07/18 09:58:10;;;;;;;5.00;2.67;;;36.50;72.10;;;;;;5023045;28;20407;-84
2023/07/18 10:00:38;;;;;;;4.93;2.53;;;36.60;73.70;;;;;;5051657;28;20437;-83
2023/07/18 10:03:04;;;;;;;7.30;2.60;;;36.90;72.30;;;;;;5042461;28;20868;-82
2023/07/18 10:05:32;;;;;;;7.40;2.60;;;36.90;73.20;;;;;;5043636;28;20455;-85
2023/07/18 10:08:06;;;;;;;6.47;2.50;;;36.90;73.00;;;;;;5028923;28;20556;-89
2023/07/18 10:10:32;;;;;;;6.97;2.57;;;36.70;72.10;;;;;;5030086;28;20489;-85
2023/07/18 10:13:01;;;;;;;5.30;2.67;;;36.80;72.60;;;;;;5042808;28;20409;-85
2023/07/18 10:15:30;;;;;;;5.22;2.47;;;36.70;72.50;;;;;;5048545;28;20460;-85
2023/07/18 10:18:18;;;;;;;5.13;2.65;;;36.60;72.90;;;;;;5026149;28;20407;-83
2023/07/18 10:21:03;;;;;;;6.32;2.53;;;36.70;73.00;;;;;;5056541;28;20411;-88
2023/07/18 10:23:46;;;;;;;7.53;2.80;;;36.60;72.60;;;;;;5035389;28;21272;-87
2023/07/18 10:26:31;;;;;;;6.70;2.40;;;36.60;73.50;;;;;;5022758;28;20426;-84
2023/07/18 10:29:05;;;;;;;6.30;2.45;;;36.60;73.10;;;;;;5037326;28;20418;-85
2023/07/18 10:31:39;;;;;;;4.38;2.42;;;36.70;72.60;;;;;;5042641;28;20537;-84
2023/07/18 10:34:16;;;;;;;6.80;2.47;;;36.60;71.10;;;;;;5029348;28;20836;-82
2023/07/18 10:37:01;;;;;;;6.78;2.58;;;36.60;72.80;;;;;;5027420;28;20413;-85
2023/07/18 10:39:56;;;;;;;7.25;2.63;;;36.60;72.70;;;;;;5038858;28;20417;-86
2023/07/18 10:42:29;;;;;;;7.25;2.45;;;36.50;71.70;;;;;;5044194;28;20418;-87
2023/07/18 10:45:05;;;;;;;5.68;2.60;;;36.60;71.60;;;;;;5040719;28;21212;-87
2023/07/18 10:47:40;;;;;;;8.13;2.70;;;36.60;73.00;;;;;;5037148;28;20421;-84
2023/07/18 10:50:14;;;;;;;12.63;2.80;;;36.50;72.80;;;;;;5035032;28;21266;-88
2023/07/18 10:52:44;;;;;;;5.90;2.58;;;36.50;72.50;;;;;;5033415;28;20411;-90
2023/07/18 10:55:12;;;;;;;9.50;2.57;;;36.40;72.10;;;;;;5035991;28;20476;-81
2023/07/18 10:57:40;;;;;;;7.40;2.60;;;36.40;73.00;;;;;;5028187;28;20426;-82
2023/07/18 11:00:10;;;;;;;7.30;2.90;;;36.40;72.30;;;;;;5019761;28;20413;-84
2023/07/18 11:02:44;;;;;;;5.90;2.70;;;36.30;71.50;;;;;;5031484;28;20480;-87
2023/07/18 11:05:18;;;;;;;4.68;2.50;;;36.30;72.80;;;;;;5011545;28;20942;-83
2023/07/18 11:07:48;;;;;;;5.10;2.57;;;36.20;73.00;;;;;;5033833;28;21370;-83
2023/07/18 11:10:27;;;;;;;5.60;2.60;;;36.10;72.50;;;;;;5030452;28;21003;-86
2023/07/18 11:12:57;;;;;;;6.35;2.80;;;36.10;72.40;;;;;;5041106;28;20899;-84
2023/07/18 11:15:23;;;;;;;6.25;2.63;;;36.10;72.90;;;;;;5061491;28;20420;-87
2023/07/18 11:17:56;;;;;;;4.75;2.50;;;36.00;72.30;;;;;;5041324;28;20440;-85
2023/07/18 11:20:36;;;;;;;5.97;2.50;;;36.10;71.80;;;;;;5065469;28;20480;-84
2023/07/18 11:23:05;;;;;;;7.33;2.57;;;36.00;72.20;;;;;;5037682;28;20407;-85
2023/07/18 11:25:33;;;;;;;7.72;2.55;;;35.90;72.10;;;;;;5024685;28;20451;-85
2023/07/18 11:28:03;;;;;;;4.95;2.70;;;35.80;71.80;;;;;;5042465;28;22444;-83
2023/07/18 11:30:31;;;;;;;5.28;2.40;;;35.90;71.70;;;;;;5060290;28;21046;-89
2023/07/18 11:33:10;;;;;;;7.25;2.60;;;35.90;71.00;;;;;;5047820;28;20763;-83
2023/07/18 11:35:47;;;;;;;9.10;2.70;;;35.80;71.70;;;;;;5022565;28;20409;-84
2023/07/18 11:38:21;;;;;;;5.20;2.78;;;35.90;71.70;;;;;;5025674;28;20526;-84
2023/07/18 11:40:50;;;;;;;10.05;2.55;;;35.90;71.90;;;;;;5032463;28;20503;-86
2023/07/18 11:43:28;;;;;;;5.10;2.60;;;35.90;71.60;;;;;;5031005;28;20411;-86
2023/07/18 11:46:00;;;;;;;6.50;2.60;;;35.90;72.10;;;;;;5034548;28;20407;-83
2023/07/18 11:48:34;;;;;;;7.13;2.53;;;35.90;72.70;;;;;;5027512;28;20417;-83
2023/07/18 11:51:05;;;;;;;10.55;2.90;;;35.90;72.70;;;;;;5028652;28;20983;-79
2023/07/18 11:53:35;;;;;;;5.93;2.70;;;36.00;72.10;;;;;;5040809;28;20415;-85
2023/07/18 11:56:21;;;;;;;9.35;2.72;;;36.00;72.60;;;;;;5048494;28;20415;-80
2023/07/18 11:58:48;;;;;;;10.05;2.78;;;35.90;73.40;;;;;;5045515;28;20481;-84
2023/07/18 12:01:14;;;;;;;5.80;2.63;;;35.80;73.00;;;;;;5037090;28;20431;-85
2023/07/18 12:03:40;;;;;;;5.53;2.60;;;35.80;72.90;;;;;;5029721;28;20413;-89
2023/07/18 12:06:09;;;;;;;5.50;2.70;;;35.80;72.90;;;;;;5044392;28;21155;-83
2023/07/18 12:08:35;;;;;;;11.18;2.97;;;35.90;74.40;;;;;;5033439;28;20573;-87
2023/07/18 12:11:09;;;;;;;7.05;2.58;;;35.80;73.60;;;;;;5035236;28;21129;-83
2023/07/18 12:13:39;;;;;;;7.63;2.80;;;35.90;74.20;;;;;;5039590;28;20412;-84
2023/07/18 12:16:05;;;;;;;6.30;2.47;;;35.80;74.30;;;;;;5068564;28;20404;-90
2023/07/18 12:18:32;;;;;;;7.07;2.55;;;35.80;73.80;;;;;;5034696;28;20419;-88
2023/07/18 12:21:00;;;;;;;8.63;2.63;;;35.90;73.70;;;;;;5034405;28;20902;-86
2023/07/18 12:23:27;;;;;;;10.57;2.97;;;35.80;74.00;;;;;;5030504;28;20405;-89
2023/07/18 12:26:07;;;;;;;6.07;2.53;;;35.80;73.40;;;;;;5040863;28;20798;-86
2023/07/18 12:28:40;;;;;;;7.53;2.70;;;35.80;72.20;;;;;;5046709;28;20511;-89
2023/07/18 12:31:08;;;;;;;5.63;2.50;;;35.80;71.90;;;;;;5018637;28;20487;-85
2023/07/18 12:33:35;;;;;;;5.03;2.70;;;35.70;71.40;;;;;;5035601;28;20450;-87
2023/07/18 12:36:23;;;;;;;6.93;2.72;;;35.80;73.30;;;;;;5030656;28;20940;-86
2023/07/18 12:38:49;;;;;;;8.10;2.80;;;35.70;75.60;;;;;;5036364;28;20403;-81
2023/07/18 12:41:17;;;;;;;7.00;2.65;;;35.70;76.00;;;;;;5051648;28;20488;-84
2023/07/18 12:43:43;;;;;;;10.00;3.27;;;35.70;77.70;;;;;;5027693;28;20411;-84
2023/07/18 12:46:15;;;;;;;10.13;2.80;;;35.60;78.30;;;;;;5031216;28;20415;-86
2023/07/18 12:48:47;;;;;;;9.35;2.78;;;35.50;80.00;;;;;;5030052;28;20424;-85
2023/07/18 12:51:13;;;;;;;6.80;2.93;;;35.50;79.80;;;;;;5038976;28;21864;-90
2023/07/18 12:53:40;;;;;;;6.35;3.00;;;35.50;82.50;;;;;;5036889;28;20416;-85
2023/07/18 12:56:14;;;;;;;7.85;3.05;;;35.50;82.60;;;;;;5043523;28;20405;-87
2023/07/18 12:58:41;;;;;;;6.20;2.58;;;35.50;81.10;;;;;;5045271;28;20463;-83